Aviation Digital Data Service (ADDS)

Output produced by METARs form (1017 UTC 12 December 2017)
found at http://www.aviationweather.gov/adds/metars/
 
KBTP 120956Z AUTO 24009KT 3SM -SN BR OVC005 00/M01 A2956 RMK AO2 UPE0857SNB0857 SLP025 P0002 T00001006 FZRANO
KBTP 120951Z AUTO 24009KT 4SM -SN BR OVC005 00/M01 A2955 RMK AO2 UPE0857SNB0857 P0002 FZRANO
KBTP 120941Z AUTO 24009G16KT 2 1/2SM -SN BR OVC005 00/M01 A2955 RMK AO2 UPE0857SNB0857 P0002 FZRANO
KBTP 120931Z AUTO 24009KT 3SM -SN BR BKN005 OVC012 00/M01 A2956 RMK AO2 UPE0857SNB0857 CIG 004V009 P0001 FZRANO
KBTP 120923Z AUTO 24010KT 2 1/2SM -SN BR SCT005 BKN010 OVC015 01/M01 A2956 RMK AO2 UPE0857SNB0857 CIG 008V012 P0001 FZRANO
KBTP 120912Z AUTO 24012KT 1 3/4SM -SN BR FEW007 BKN012 OVC024 01/M01 A2955 RMK AO2 UPE0857SNB0857 P0001 FZRANO
KBTP 120906Z AUTO 25012KT 2 1/2SM -SN BR BKN012 OVC026 01/M01 A2954 RMK AO2 VIS 1 3/4V5 UPE0857SNB0857 P0000 FZRANO
KBTP 120856Z AUTO 26011G16KT 240V310 7SM UP FEW015 BKN023 OVC028 02/M02 A2954 RMK AO2 RAE45UPB45 SLP020 P0000 60000 T00171017 56014 FZRANO
KBTP 120841Z AUTO 25006KT 10SM -RA BKN028 OVC036 02/M01 A2954 RMK AO2 P0000 FZRANO
KBTP 120831Z AUTO 25005KT 10SM -RA SCT026 OVC034 02/M01 A2954 RMK AO2 P0000 FZRANO
KBTP 120756Z AUTO 23013G23KT 10SM -RA BKN023 OVC028 03/M01 A2955 RMK AO2 RAB27UPB40E43 SLP021 P0000 T00281011
KBTP 120748Z AUTO 24016G23KT 10SM -RA BKN025 OVC030 03/M02 A2955 RMK AO2 RAB27UPB40E43 P0000
KBTP 120656Z AUTO 19005KT 10SM SCT070 BKN090 02/M06 A2955 RMK AO2 SLP022 T00221056 FZRANO
KBTP 120556Z AUTO 14004KT 10SM OVC060 02/M06 A2959 RMK AO2 SLP036 T00171061 10017 20000 56042 FZRANO
KBTP 120456Z AUTO 13003KT 10SM OVC070 02/M06 A2963 RMK AO2 SLP049 T00171056 400171017 FZRANO
KBTP 120356Z AUTO 15004KT 10SM BKN060 BKN095 01/M06 A2968 RMK AO2 SLP066 T00111056 FZRANO
KBTP 120256Z AUTO 17004KT 10SM FEW070 01/M06 A2972 RMK AO2 SLP081 T00111056 58027 FZRANO
KBTP 120156Z AUTO 14003KT 10SM CLR 01/M06 A2975 RMK AO2 SLP092 T00061061 FZRANO
KBTP 120056Z AUTO 11004KT 10SM OVC050 00/M06 A2978 RMK AO2 SLP102 T00001061 FZRANO
KBTP 112356Z AUTO 10004KT 10SM CLR 00/M05 A2980 RMK AO2 RAE2258 SLP109 P0000 60000 T00001050 10011 20000 58026 FZRANO
KBTP 112256Z AUTO 00000KT 10SM -RA FEW042 OVC049 01/M06 A2984 RMK AO2 RAB44 SLP124 P0000 T00061061 FZRANO
KBTP 112156Z AUTO 00000KT 10SM BKN060 OVC085 01/M06 A2986 RMK AO2 SLP129 T00061061 FZRANO
KBTP 112056Z AUTO 00000KT 10SM SCT041 OVC070 01/M07 A2988 RMK AO2 RAE04B20E44 SLP137 P0000 60000 T00111067 56026 FZRANO
KBTP 111956Z AUTO 19005KT 10SM -RA FEW032 OVC055 01/M07 A2991 RMK AO2 RAB49 SLP147 P0000 T00111067 FZRANO
KBTP 111856Z AUTO 20007KT 10SM BKN075 OVC090 01/M07 A2991 RMK AO2 SLP149 T00061072 FZRANO
KBTP 111756Z AUTO 22006KT 10SM OVC034 01/M08 A2996 RMK AO2 RAB02E11UPB11E29 SLP164 P0000 60000 T00061078 10011 21017 58020 FZRANO
KBTP 111656Z AUTO 22009KT 10SM OVC032 01/M08 A2998 RMK AO2 SLP170 T00061078 FZRANO TSNO
KBTP 111556Z AUTO 24005KT 10SM BKN030 01/M08 A3000 RMK AO2 SLP179 T00061078 FZRANO
KBTP 111456Z AUTO 21006KT 10SM OVC030 M01/M07 A3002 RMK AO2 SLP186 T10111072 50000 FZRANO
KBTP 111430Z AUTO 25007KT 10SM OVC030 M01/M07 A3003 RMK AO2 FZRANO
KBTP 111356Z AUTO 26005KT 10SM OVC028 M02/M07 A3002 RMK AO2 SLP187 T10171067 FZRANO
KBTP 111256Z AUTO 26005KT 10SM OVC028 M02/M06 A3003 RMK AO2 SLP189 T10171061 FZRANO
KBTP 111156Z AUTO 25007KT 10SM OVC028 M02/M06 A3002 RMK AO2 SLP187 60000 T10171061 11011 21017 53010 FZRANO
KBTP 111056Z AUTO 25005KT 9SM OVC028 M02/M06 A3000 RMK AO2 SNB46E56 SLP181 P0000 T10171061 FZRANO
KBTP 111053Z AUTO 24006KT 9SM -SN OVC028 M02/M06 A3000 RMK AO2 SNB46 P0000 FZRANO